Time;durP1;ratioP1;P1;durP2;ratioP2;P2;SDS_P1;SDS_P2;PMS_P1;PMS_P2;Temp;Humidity;BMP_temperature;BMP_pressure;BME280_temperature;BME280_humidity;BME280_pressure;Samples;Min_cycle;Max_cycle;Signal;HPM_P1;HPM_P2
2021/10/07 03:33:04;;;;;;;;;12.25;11.00;;;;;;;;5086516;27;45600;-78
2021/10/07 03:35:29;;;;;;;;;8.25;8.00;;;;;;;;5088100;27;45483;-78
2021/10/07 03:37:54;;;;;;;;;14.25;10.00;;;;;;;;5080026;27;46351;-78
2021/10/07 03:40:19;;;;;;;;;10.75;10.00;;;;;;;;5083538;27;53228;-77
2021/10/07 03:42:45;;;;;;;;;13.67;7.00;;;;;;;;5087301;27;46335;-78
2021/10/07 03:45:10;;;;;;;;;7.00;7.00;;;;;;;;5091006;27;45917;-77
2021/10/07 03:47:35;;;;;;;;;10.50;6.50;;;;;;;;5086011;27;45551;-78
2021/10/07 03:50:00;;;;;;;;;12.00;12.00;;;;;;;;5086424;27;48826;-78
2021/10/07 03:52:26;;;;;;;;;11.00;11.00;;;;;;;;5085248;27;46315;-77
2021/10/07 03:54:52;;;;;;;;;14.25;12.25;;;;;;;;5087832;27;45907;-78
2021/10/07 03:57:17;;;;;;;;;12.75;9.75;;;;;;;;5095981;27;45592;-78
2021/10/07 03:59:43;;;;;;;;;11.00;9.75;;;;;;;;5085202;27;49663;-77
2021/10/07 04:02:08;;;;;;;;;10.00;7.00;;;;;;;;5086263;27;46012;-77
2021/10/07 04:12:09;;;;;;;;;;;;;;;;;;2453723;27;252100761;-77
2021/10/07 04:20:25;;;;;;;;;1.00;1.00;;;;;;;;2;261093085;261093085;-77
2021/10/07 04:29:16;;;;;;;;;10.00;10.00;;;;;;;;2;252103844;252103844;-76
2021/10/07 04:37:32;;;;;;;;;5.50;5.50;;;;;;;;2;261092339;261092339;-77
2021/10/07 04:46:23;;;;;;;;;6.00;6.00;;;;;;;;2;252102404;252102404;-76
2021/10/07 04:54:39;;;;;;;;;10.50;10.50;;;;;;;;2;261092474;261092474;-77
2021/10/07 05:03:30;;;;;;;;;7.50;7.50;;;;;;;;2;252094065;252094065;-76
2021/10/07 05:11:46;;;;;;;;;6.00;6.00;;;;;;;;2;261107656;261107656;-76
2021/10/07 05:20:37;;;;;;;;;8.00;8.00;;;;;;;;2;252098938;252098938;-76
2021/10/07 05:28:53;;;;;;;;;23.00;13.00;;;;;;;;2;261105531;261105531;-76
2021/10/07 05:37:44;;;;;;;;;12.00;3.00;;;;;;;;2;252093339;252093339;-77
2021/10/07 05:45:59;;;;;;;;;17.50;9.50;;;;;;;;2;261105866;261105866;-76
2021/10/07 05:54:51;;;;;;;;;7.50;7.50;;;;;;;;2;252092389;252092389;-76
2021/10/07 06:03:09;;;;;;;;;10.50;10.50;;;;;;;;2;261090195;261090195;-77
2021/10/07 06:12:01;;;;;;;;;5.50;5.50;;;;;;;;2;252093454;252093454;-77
2021/10/07 06:20:20;;;;;;;;;8.50;8.50;;;;;;;;2;261110528;261110528;-77
2021/10/07 06:29:12;;;;;;;;;12.50;9.50;;;;;;;;2;252128049;252128049;-76
2021/10/07 06:37:27;;;;;;;;;4.00;4.00;;;;;;;;2;261097822;261097822;-77
2021/10/07 06:46:19;;;;;;;;;10.00;10.00;;;;;;;;2;252088425;252088425;-75
2021/10/07 06:54:34;;;;;;;;;16.00;16.00;;;;;;;;2;261102875;261102875;-75
2021/10/07 07:03:26;;;;;;;;;13.50;13.50;;;;;;;;2;252084695;252084695;-76
2021/10/07 07:11:41;;;;;;;;;17.50;9.50;;;;;;;;2;261099360;261099360;-76
2021/10/07 07:20:33;;;;;;;;;9.00;9.00;;;;;;;;2;252103516;252103516;-78
2021/10/07 07:28:48;;;;;;;;;8.50;8.50;;;;;;;;2;261101075;261101075;-75
2021/10/07 07:37:40;;;;;;;;;11.00;11.00;;;;;;;;2;252100822;252100822;-75
2021/10/07 07:45:55;;;;;;;;;6.00;6.00;;;;;;;;2;261093090;261093090;-75
2021/10/07 07:54:47;;;;;;;;;9.00;9.00;;;;;;;;2;252103420;252103420;-73
2021/10/07 08:03:02;;;;;;;;;28.00;13.00;;;;;;;;2;261094485;261094485;-75
2021/10/07 08:11:54;;;;;;;;;11.50;11.50;;;;;;;;2;252096805;252096805;-76
2021/10/07 08:20:11;;;;;;;;;14.00;10.00;;;;;;;;2;261095753;261095753;-76
2021/10/07 08:29:03;;;;;;;;;14.00;14.00;;;;;;;;2;252098351;252098351;-76
2021/10/07 08:37:18;;;;;;;;;9.00;9.00;;;;;;;;2;261093813;261093813;-76
2021/10/07 08:46:10;;;;;;;;;9.50;9.50;;;;;;;;2;252092341;252092341;-75
2021/10/07 08:54:26;;;;;;;;;19.00;10.00;;;;;;;;2;261119454;261119454;-76
2021/10/07 09:03:18;;;;;;;;;24.00;24.00;;;;;;;;2;252095211;252095211;-76
2021/10/07 09:11:34;;;;;;;;;7.00;7.00;;;;;;;;2;261113974;261113974;-76
2021/10/07 09:16:13;;;;;;;;;6.50;6.50;;;;;;;;2;252095743;252095743;-76
2021/10/07 09:18:38;;;;;;;;;16.75;13.50;;;;;;;;5026325;28;45861;-76
2021/10/07 09:21:03;;;;;;;;;13.00;11.00;;;;;;;;5035696;28;46851;-76
2021/10/07 09:23:31;;;;;;;;;12.67;11.00;;;;;;;;5034606;28;45603;-76
2021/10/07 09:26:11;;;;;;;;;14.00;12.00;;;;;;;;5030392;28;47463;-75
2021/10/07 09:28:49;;;;;;;;;10.25;8.75;;;;;;;;5029352;28;45919;-77
2021/10/07 09:31:15;;;;;;;;;11.25;9.50;;;;;;;;5030624;28;45902;-77
2021/10/07 09:33:44;;;;;;;;;13.00;11.75;;;;;;;;5027680;28;51541;-76
2021/10/07 09:36:28;;;;;;;;;9.50;7.50;;;;;;;;5032273;28;47451;-76
2021/10/07 09:38:54;;;;;;;;;9.00;8.00;;;;;;;;5038476;28;45698;-75
2021/10/07 09:41:21;;;;;;;;;9.00;5.75;;;;;;;;5029591;28;48609;-76
2021/10/07 09:43:54;;;;;;;;;7.25;6.00;;;;;;;;5028972;28;45783;-76
2021/10/07 09:46:39;;;;;;;;;5.50;5.00;;;;;;;;5030557;28;45599;-76
2021/10/07 09:49:04;;;;;;;;;9.00;7.25;;;;;;;;5027667;28;45594;-77
2021/10/07 09:51:36;;;;;;;;;7.00;6.00;;;;;;;;5036543;28;45716;-76
2021/10/07 09:59:21;;;;;;;;;;;;;;;;;;3;57150832;146622015;-77
2021/10/07 10:07:28;;;;;;;;;2.00;0.00;;;;;;;;2;234098900;234098900;-77
2021/10/07 10:16:29;;;;;;;;;5.50;5.50;;;;;;;;2;279117290;279117290;-77
2021/10/07 10:24:36;;;;;;;;;4.00;4.00;;;;;;;;2;234080746;234080746;-76
2021/10/07 10:33:38;;;;;;;;;2.00;2.00;;;;;;;;2;279098602;279098602;-77
2021/10/07 10:37:32;;;;;;;;;5.00;5.00;;;;;;;;2;233837262;233837262;-82
2021/10/07 10:40:08;;;;;;;;;0.50;0.50;;;;;;;;165303;28;143360693;-79
2021/10/07 10:42:33;;;;;;;;;3.00;3.00;;;;;;;;5033482;28;45653;-78
2021/10/07 10:45:02;;;;;;;;;4.33;4.00;;;;;;;;5042933;28;46104;-78
2021/10/07 10:47:28;;;;;;;;;5.00;4.00;;;;;;;;5035563;28;46346;-78
2021/10/07 10:50:00;;;;;;;;;3.75;3.00;;;;;;;;5033597;28;45651;-83
2021/10/07 10:52:26;;;;;;;;;4.00;3.00;;;;;;;;5034596;28;45724;-78
2021/10/07 10:54:55;;;;;;;;;4.75;2.00;;;;;;;;5041979;28;45606;-78
2021/10/07 10:57:31;;;;;;;;;3.00;2.00;;;;;;;;5032015;28;45633;-89
2021/10/07 11:00:15;;;;;;;;;4.00;2.25;;;;;;;;5041531;28;45608;-79
2021/10/07 11:02:46;;;;;;;;;4.00;2.00;;;;;;;;5039726;28;46514;-76
2021/10/07 11:05:11;;;;;;;;;4.50;3.00;;;;;;;;5035030;28;46232;-76
2021/10/07 11:07:36;;;;;;;;;4.67;3.67;;;;;;;;5038782;28;46081;-79
2021/10/07 11:10:09;;;;;;;;;5.00;1.50;;;;;;;;5037952;28;45724;-76
2021/10/07 11:12:48;;;;;;;;;6.00;5.25;;;;;;;;5039155;28;46511;-78
2021/10/07 11:15:14;;;;;;;;;5.00;5.00;;;;;;;;5034869;28;45586;-77
2021/10/07 11:17:40;;;;;;;;;3.00;2.00;;;;;;;;5040054;28;47680;-79
2021/10/07 11:20:06;;;;;;;;;3.00;3.00;;;;;;;;5031888;28;45694;-78
2021/10/07 11:22:31;;;;;;;;;2.75;2.75;;;;;;;;5038120;28;47201;-77
2021/10/07 11:24:58;;;;;;;;;2.25;2.25;;;;;;;;5030480;28;45660;-77
2021/10/07 11:27:42;;;;;;;;;5.00;2.75;;;;;;;;5036906;28;45524;-78
2021/10/07 11:30:09;;;;;;;;;3.00;3.00;;;;;;;;5032105;28;45655;-77
2021/10/07 11:32:35;;;;;;;;;3.25;3.25;;;;;;;;5037468;28;49461;-77
2021/10/07 11:35:03;;;;;;;;;1.00;1.00;;;;;;;;5041574;28;45516;-78
2021/10/07 11:37:44;;;;;;;;;6.25;4.25;;;;;;;;5038261;28;45577;-79
2021/10/07 11:40:22;;;;;;;;;3.50;2.75;;;;;;;;5040499;28;45573;-78
2021/10/07 11:42:48;;;;;;;;;3.00;2.00;;;;;;;;5035916;28;45876;-78
2021/10/07 11:45:17;;;;;;;;;2.75;2.75;;;;;;;;5035205;28;45411;-77
2021/10/07 11:47:43;;;;;;;;;4.00;3.50;;;;;;;;5040585;28;46987;-77
2021/10/07 11:50:12;;;;;;;;;3.33;3.00;;;;;;;;5038116;28;45303;-76
2021/10/07 11:52:37;;;;;;;;;3.00;3.00;;;;;;;;5034369;28;45687;-77
2021/10/07 11:55:03;;;;;;;;;4.00;3.00;;;;;;;;5049248;28;45559;-77
2021/10/07 11:57:28;;;;;;;;;4.50;2.25;;;;;;;;5043911;28;46364;-77
2021/10/07 11:59:53;;;;;;;;;1.00;1.00;;;;;;;;5047463;28;45742;-78
2021/10/07 12:02:19;;;;;;;;;5.00;4.00;;;;;;;;5039432;28;47729;-75
2021/10/07 12:04:44;;;;;;;;;5.00;4.00;;;;;;;;5042595;28;45631;-78
2021/10/07 12:07:13;;;;;;;;;5.00;5.00;;;;;;;;5043428;28;46411;-77
2021/10/07 12:09:42;;;;;;;;;5.75;4.00;;;;;;;;5039325;28;45782;-78
2021/10/07 12:12:07;;;;;;;;;6.25;4.25;;;;;;;;5038581;28;47084;-78
2021/10/07 12:14:33;;;;;;;;;5.75;5.00;;;;;;;;5046990;28;45577;-78
2021/10/07 12:16:58;;;;;;;;;6.00;3.75;;;;;;;;5040423;28;51728;-79
2021/10/07 12:19:27;;;;;;;;;4.25;2.25;;;;;;;;5035144;28;45500;-78
2021/10/07 12:21:55;;;;;;;;;4.00;3.00;;;;;;;;5049635;28;45873;-78
2021/10/07 12:24:23;;;;;;;;;6.25;4.00;;;;;;;;5034458;28;45613;-78
2021/10/07 12:26:49;;;;;;;;;4.75;4.00;;;;;;;;5034753;28;45944;-78
2021/10/07 12:29:25;;;;;;;;;3.00;3.00;;;;;;;;5043279;28;45632;-78
2021/10/07 12:31:51;;;;;;;;;5.75;4.25;;;;;;;;5037345;28;45359;-78
2021/10/07 12:34:17;;;;;;;;;2.25;2.00;;;;;;;;5035093;28;45656;-78
2021/10/07 12:36:52;;;;;;;;;4.00;3.50;;;;;;;;5027498;28;46288;-77
2021/10/07 12:39:21;;;;;;;;;3.00;2.00;;;;;;;;5025580;28;45651;-79
2021/10/07 12:41:49;;;;;;;;;3.25;2.50;;;;;;;;5031877;28;45636;-78
2021/10/07 12:44:19;;;;;;;;;2.00;2.00;;;;;;;;5034135;28;45717;-78
2021/10/07 12:46:46;;;;;;;;;3.00;2.00;;;;;;;;5033903;28;46451;-77
2021/10/07 12:49:11;;;;;;;;;2.75;2.25;;;;;;;;5040149;28;49209;-79
2021/10/07 12:51:36;;;;;;;;;4.00;2.00;;;;;;;;5029364;28;45673;-81
2021/10/07 12:54:10;;;;;;;;;2.00;2.00;;;;;;;;5023460;28;45602;-78
2021/10/07 12:56:39;;;;;;;;;2.00;1.50;;;;;;;;5040696;28;45619;-82
2021/10/07 12:59:04;;;;;;;;;1.00;1.00;;;;;;;;5043645;28;45307;-81
2021/10/07 13:01:37;;;;;;;;;3.25;1.50;;;;;;;;5037368;28;45502;-81
2021/10/07 13:04:13;;;;;;;;;2.75;1.75;;;;;;;;5043347;28;44951;-81
2021/10/07 13:06:39;;;;;;;;;5.00;4.00;;;;;;;;5037884;28;45993;-84
2021/10/07 13:09:05;;;;;;;;;4.00;2.00;;;;;;;;5029705;28;45580;-80
2021/10/07 13:11:30;;;;;;;;;1.00;1.00;;;;;;;;5036559;28;45690;-79
2021/10/07 13:13:57;;;;;;;;;2.25;1.00;;;;;;;;5030735;28;45606;-80
2021/10/07 13:16:23;;;;;;;;;1.50;1.50;;;;;;;;5031711;28;46363;-78
2021/10/07 13:18:48;;;;;;;;;0.75;0.75;;;;;;;;5031566;28;45429;-77
2021/10/07 13:21:13;;;;;;;;;2.00;1.50;;;;;;;;5044086;28;44978;-80
2021/10/07 13:23:38;;;;;;;;;1.00;1.00;;;;;;;;5051038;28;45822;-79
2021/10/07 13:26:07;;;;;;;;;0.25;0.25;;;;;;;;5040020;28;45431;-80
2021/10/07 13:28:32;;;;;;;;;1.00;1.00;;;;;;;;5034899;28;45556;-80
2021/10/07 13:30:57;;;;;;;;;2.50;1.00;;;;;;;;5036652;28;45358;-79
2021/10/07 13:33:25;;;;;;;;;1.50;1.25;;;;;;;;5040868;28;46497;-81
2021/10/07 13:35:51;;;;;;;;;1.50;0.75;;;;;;;;5044873;28;46137;-79
2021/10/07 13:38:21;;;;;;;;;2.00;1.00;;;;;;;;5039845;28;47756;-79
2021/10/07 13:40:46;;;;;;;;;1.00;0.00;;;;;;;;5039445;28;45529;-79
2021/10/07 13:43:12;;;;;;;;;1.50;1.00;;;;;;;;5037680;28;45526;-79
2021/10/07 13:45:37;;;;;;;;;2.00;2.00;;;;;;;;5039608;28;46272;-78
2021/10/07 13:48:02;;;;;;;;;1.00;1.00;;;;;;;;5052165;28;45417;-79
2021/10/07 13:50:28;;;;;;;;;2.00;2.00;;;;;;;;5050619;28;45697;-78
2021/10/07 13:52:53;;;;;;;;;1.75;0.75;;;;;;;;5044514;28;45735;-79
2021/10/07 13:55:20;;;;;;;;;1.00;1.00;;;;;;;;5049488;28;46862;-79
2021/10/07 13:57:45;;;;;;;;;3.50;2.75;;;;;;;;5050234;28;45560;-80
2021/10/07 14:00:11;;;;;;;;;1.75;1.00;;;;;;;;5049879;28;45515;-79
2021/10/07 14:02:37;;;;;;;;;2.00;2.00;;;;;;;;5049176;28;42417;-78
2021/10/07 14:05:03;;;;;;;;;2.00;2.00;;;;;;;;5046337;28;45638;-79
2021/10/07 14:07:28;;;;;;;;;3.00;1.50;;;;;;;;5036086;28;45501;-79
2021/10/07 14:09:53;;;;;;;;;1.67;1.67;;;;;;;;5033097;28;45688;-81
2021/10/07 14:12:19;;;;;;;;;2.50;1.00;;;;;;;;5037659;28;45555;-79
2021/10/07 14:14:44;;;;;;;;;2.00;1.00;;;;;;;;5045422;28;45599;-78
2021/10/07 14:17:09;;;;;;;;;2.00;2.00;;;;;;;;5027644;28;45607;-80
2021/10/07 14:19:34;;;;;;;;;1.00;1.00;;;;;;;;5023612;28;51755;-79
2021/10/07 14:22:00;;;;;;;;;3.75;2.50;;;;;;;;5032627;28;47749;-79
2021/10/07 14:24:25;;;;;;;;;2.00;2.00;;;;;;;;5025141;28;45786;-79
2021/10/07 14:26:50;;;;;;;;;2.50;0.75;;;;;;;;5023845;28;45841;-79
2021/10/07 14:29:16;;;;;;;;;2.00;1.00;;;;;;;;5030200;28;46029;-79
2021/10/07 14:31:41;;;;;;;;;1.25;1.00;;;;;;;;5036536;28;45571;-80
2021/10/07 14:34:07;;;;;;;;;3.00;1.00;;;;;;;;5029180;28;45679;-79
2021/10/07 14:36:33;;;;;;;;;1.75;1.00;;;;;;;;5045764;27;46796;-80
2021/10/07 14:38:58;;;;;;;;;2.50;1.00;;;;;;;;5030101;28;45767;-79
2021/10/07 14:41:23;;;;;;;;;4.33;1.33;;;;;;;;5041530;28;46418;-79
2021/10/07 14:43:48;;;;;;;;;1.00;1.00;;;;;;;;5051862;28;44841;-79
2021/10/07 14:46:14;;;;;;;;;2.00;1.00;;;;;;;;5042189;28;46342;-79
2021/10/07 14:48:39;;;;;;;;;1.75;1.75;;;;;;;;5020377;28;47252;-79
2021/10/07 14:51:04;;;;;;;;;1.00;1.00;;;;;;;;5051121;28;45548;-80
2021/10/07 14:53:29;;;;;;;;;2.25;2.25;;;;;;;;5046877;28;45511;-79
2021/10/07 14:55:55;;;;;;;;;1.00;1.00;;;;;;;;5042364;28;45516;-79
2021/10/07 14:58:21;;;;;;;;;4.75;1.50;;;;;;;;5038094;28;46031;-78
2021/10/07 15:00:46;;;;;;;;;4.50;1.75;;;;;;;;5035993;28;45658;-79
2021/10/07 15:03:12;;;;;;;;;2.00;1.00;;;;;;;;5037509;28;47655;-79
2021/10/07 15:05:37;;;;;;;;;1.00;1.00;;;;;;;;5043419;28;45583;-79
2021/10/07 15:08:06;;;;;;;;;1.00;1.00;;;;;;;;5037885;28;45484;-80
2021/10/07 15:10:31;;;;;;;;;2.25;1.00;;;;;;;;5041556;28;44699;-79
2021/10/07 15:12:56;;;;;;;;;2.00;1.33;;;;;;;;5032891;28;46731;-79
2021/10/07 15:15:22;;;;;;;;;2.00;1.00;;;;;;;;5052058;28;45563;-79
2021/10/07 15:17:47;;;;;;;;;2.00;2.00;;;;;;;;5048013;28;44815;-80
2021/10/07 15:20:15;;;;;;;;;2.50;2.00;;;;;;;;5046057;28;45539;-78
2021/10/07 15:22:41;;;;;;;;;1.75;1.00;;;;;;;;5039085;28;47172;-78
2021/10/07 15:25:07;;;;;;;;;3.75;1.75;;;;;;;;5043557;28;45851;-78
2021/10/07 15:27:32;;;;;;;;;1.00;1.00;;;;;;;;5028261;28;45934;-78
2021/10/07 15:29:58;;;;;;;;;3.00;2.00;;;;;;;;5038286;28;45573;-79
2021/10/07 15:32:23;;;;;;;;;1.00;1.00;;;;;;;;5036467;28;46474;-79
2021/10/07 15:34:48;;;;;;;;;1.25;1.25;;;;;;;;5051012;28;45330;-78
2021/10/07 15:37:13;;;;;;;;;2.67;2.33;;;;;;;;5045213;28;45499;-78
2021/10/07 15:39:39;;;;;;;;;1.50;1.00;;;;;;;;5022958;28;45611;-79
2021/10/07 15:42:04;;;;;;;;;1.00;1.00;;;;;;;;5025581;28;46007;-78
2021/10/07 15:44:30;;;;;;;;;2.50;1.25;;;;;;;;5038329;28;45548;-79
2021/10/07 15:46:56;;;;;;;;;0.50;0.50;;;;;;;;5031972;28;46569;-79
2021/10/07 15:49:22;;;;;;;;;0.75;0.75;;;;;;;;5038810;28;45880;-79
2021/10/07 15:51:49;;;;;;;;;0.75;0.50;;;;;;;;5029435;28;45849;-79
2021/10/07 15:54:17;;;;;;;;;2.25;2.00;;;;;;;;5029638;28;46102;-78
2021/10/07 15:56:42;;;;;;;;;1.00;1.00;;;;;;;;5027691;28;45678;-79
2021/10/07 15:59:07;;;;;;;;;1.00;1.00;;;;;;;;5030036;28;54306;-79
2021/10/07 16:01:33;;;;;;;;;1.00;1.00;;;;;;;;5025735;28;46018;-79
2021/10/07 16:03:59;;;;;;;;;1.00;1.00;;;;;;;;5027840;28;45646;-80
2021/10/07 16:06:24;;;;;;;;;4.50;1.00;;;;;;;;5029664;28;47465;-79
2021/10/07 16:08:50;;;;;;;;;0.50;0.50;;;;;;;;5037913;28;45853;-78
2021/10/07 16:11:15;;;;;;;;;1.00;1.00;;;;;;;;5018409;28;46063;-76
2021/10/07 16:13:40;;;;;;;;;0.00;0.00;;;;;;;;5028219;28;45628;-77
2021/10/07 16:16:06;;;;;;;;;0.50;0.50;;;;;;;;5026122;28;45831;-78
2021/10/07 16:18:31;;;;;;;;;2.00;0.75;;;;;;;;5027467;28;45496;-78
2021/10/07 16:20:56;;;;;;;;;1.75;0.75;;;;;;;;5030353;28;47365;-80
2021/10/07 16:23:24;;;;;;;;;2.75;2.00;;;;;;;;5020611;28;46106;-80
2021/10/07 16:25:51;;;;;;;;;2.25;2.25;;;;;;;;5018351;28;45703;-79
2021/10/07 16:28:16;;;;;;;;;2.00;2.00;;;;;;;;5029456;28;45787;-78
2021/10/07 16:30:42;;;;;;;;;2.25;2.25;;;;;;;;5020718;28;45894;-76
2021/10/07 16:33:07;;;;;;;;;1.00;1.00;;;;;;;;5029544;28;45803;-76
2021/10/07 16:35:32;;;;;;;;;1.75;1.75;;;;;;;;5030821;28;45547;-78
2021/10/07 16:37:58;;;;;;;;;2.25;2.25;;;;;;;;5030721;28;45831;-77
2021/10/07 16:40:23;;;;;;;;;2.00;2.00;;;;;;;;5033278;28;45520;-79
2021/10/07 16:42:48;;;;;;;;;2.50;2.00;;;;;;;;5030481;28;45675;-79
2021/10/07 16:45:13;;;;;;;;;2.50;1.25;;;;;;;;5034894;28;45563;-79
2021/10/07 16:47:39;;;;;;;;;7.67;6.00;;;;;;;;5024957;28;45805;-79
2021/10/07 16:50:05;;;;;;;;;15.75;14.00;;;;;;;;5036871;28;46710;-79
2021/10/07 16:52:30;;;;;;;;;16.75;15.00;;;;;;;;5030453;28;46084;-79
2021/10/07 16:54:55;;;;;;;;;15.67;12.67;;;;;;;;5029003;28;53769;-80
2021/10/07 16:57:21;;;;;;;;;4.67;3.00;;;;;;;;5012810;28;45432;-80
2021/10/07 16:59:46;;;;;;;;;1.25;1.25;;;;;;;;5040955;28;45582;-79
2021/10/07 17:02:12;;;;;;;;;2.25;2.25;;;;;;;;5038141;28;46201;-78
2021/10/07 17:04:39;;;;;;;;;2.00;2.00;;;;;;;;5034389;28;45626;-79
2021/10/07 17:07:13;;;;;;;;;4.00;3.00;;;;;;;;5031318;28;45489;-79
2021/10/07 17:09:38;;;;;;;;;4.50;4.00;;;;;;;;5033345;28;47459;-81
2021/10/07 17:12:04;;;;;;;;;3.25;2.75;;;;;;;;5057976;28;45646;-80
2021/10/07 17:14:38;;;;;;;;;59.50;39.00;;;;;;;;5047591;28;44895;-81
2021/10/07 17:17:04;;;;;;;;;5.50;5.00;;;;;;;;5079428;22;44945;-80
2021/10/07 17:19:30;;;;;;;;;5.00;4.75;;;;;;;;5065706;27;45412;-80
2021/10/07 17:21:55;;;;;;;;;3.67;3.67;;;;;;;;5056963;27;45614;-79
2021/10/07 17:24:20;;;;;;;;;4.00;4.00;;;;;;;;5062873;27;45474;-79
2021/10/07 17:26:46;;;;;;;;;7.67;7.00;;;;;;;;5054465;27;46162;-79
2021/10/07 17:29:11;;;;;;;;;4.75;4.75;;;;;;;;5035542;28;47006;-77
2021/10/07 17:31:36;;;;;;;;;8.50;5.25;;;;;;;;5040426;27;45998;-80
2021/10/07 17:34:02;;;;;;;;;7.67;5.00;;;;;;;;5060295;27;45793;-85
2021/10/07 17:36:27;;;;;;;;;7.75;5.50;;;;;;;;5062612;27;45589;-80
2021/10/07 17:38:52;;;;;;;;;6.00;6.00;;;;;;;;5059495;27;45912;-81
2021/10/07 17:41:18;;;;;;;;;6.00;3.33;;;;;;;;5059405;27;45505;-81
2021/10/07 17:43:46;;;;;;;;;5.50;5.50;;;;;;;;5039510;27;45544;-81
2021/10/07 17:46:11;;;;;;;;;8.25;5.00;;;;;;;;5046735;27;48853;-82
2021/10/07 17:48:36;;;;;;;;;7.00;6.00;;;;;;;;5041321;27;45600;-77
2021/10/07 17:51:02;;;;;;;;;4.50;4.50;;;;;;;;5018702;27;45543;-77
2021/10/07 17:53:27;;;;;;;;;6.00;3.75;;;;;;;;5028373;27;45549;-76
2021/10/07 17:55:52;;;;;;;;;8.00;4.33;;;;;;;;5055485;28;45633;-77
2021/10/07 17:58:17;;;;;;;;;6.67;6.00;;;;;;;;5056208;27;45698;-77
2021/10/07 18:00:42;;;;;;;;;12.50;5.25;;;;;;;;5059991;28;45689;-76
2021/10/07 18:03:08;;;;;;;;;8.33;5.67;;;;;;;;5056463;27;45557;-77
2021/10/07 18:05:33;;;;;;;;;6.50;5.50;;;;;;;;5038113;28;45666;-77
2021/10/07 18:07:58;;;;;;;;;4.50;4.50;;;;;;;;5057769;27;55273;-77
2021/10/07 18:10:23;;;;;;;;;5.00;5.00;;;;;;;;5060794;27;46534;-76
2021/10/07 18:12:50;;;;;;;;;6.75;6.50;;;;;;;;5058511;28;45636;-76
2021/10/07 18:15:15;;;;;;;;;5.00;5.00;;;;;;;;5055086;27;45563;-77
2021/10/07 18:17:41;;;;;;;;;10.75;8.50;;;;;;;;5061385;28;45792;-78
2021/10/07 18:20:07;;;;;;;;;10.50;7.00;;;;;;;;5058160;27;45482;-78
2021/10/07 18:22:32;;;;;;;;;10.00;9.00;;;;;;;;5059470;27;45403;-78
2021/10/07 18:24:58;;;;;;;;;12.75;10.00;;;;;;;;5041144;28;45593;-78
2021/10/07 18:27:25;;;;;;;;;8.50;6.75;;;;;;;;5058599;28;45745;-78
2021/10/07 18:29:50;;;;;;;;;11.00;11.00;;;;;;;;5068868;27;45653;-77
2021/10/07 18:32:16;;;;;;;;;12.25;10.25;;;;;;;;5063247;27;45455;-78
2021/10/07 18:34:42;;;;;;;;;12.75;12.00;;;;;;;;5059696;27;45521;-78
2021/10/07 18:37:07;;;;;;;;;12.25;10.50;;;;;;;;5061252;27;46308;-77
2021/10/07 18:39:32;;;;;;;;;12.50;11.50;;;;;;;;5068633;27;45424;-78
2021/10/07 18:41:58;;;;;;;;;15.00;11.50;;;;;;;;5067085;27;44886;-78
2021/10/07 18:44:23;;;;;;;;;11.75;11.75;;;;;;;;5065797;27;46170;-77
2021/10/07 18:46:48;;;;;;;;;12.00;10.75;;;;;;;;5073997;27;44867;-78
2021/10/07 18:49:14;;;;;;;;;20.75;13.00;;;;;;;;5071909;27;45900;-78
2021/10/07 18:51:39;;;;;;;;;17.25;16.25;;;;;;;;5056224;27;44815;-76
2021/10/07 18:54:05;;;;;;;;;20.25;14.75;;;;;;;;5079066;27;43019;-76
2021/10/07 18:56:34;;;;;;;;;19.50;16.00;;;;;;;;5060659;27;47265;-77
2021/10/07 18:59:00;;;;;;;;;16.75;15.25;;;;;;;;5069295;27;45510;-74
2021/10/07 19:01:27;;;;;;;;;18.75;14.50;;;;;;;;5063879;27;45350;-76
2021/10/07 19:03:54;;;;;;;;;14.25;14.25;;;;;;;;5062528;27;45727;-76
2021/10/07 19:06:19;;;;;;;;;22.50;15.50;;;;;;;;5063253;27;45623;-77
2021/10/07 19:08:45;;;;;;;;;19.33;16.00;;;;;;;;5063416;28;45417;-77
2021/10/07 19:11:10;;;;;;;;;19.00;15.75;;;;;;;;5059844;27;45602;-76
2021/10/07 19:13:38;;;;;;;;;21.67;13.00;;;;;;;;5057202;28;45528;-76
2021/10/07 19:16:04;;;;;;;;;18.25;14.50;;;;;;;;5053736;27;45578;-78
2021/10/07 19:18:29;;;;;;;;;22.75;18.25;;;;;;;;5059399;27;45554;-75
2021/10/07 19:20:56;;;;;;;;;17.00;16.67;;;;;;;;5076195;27;45525;-76
2021/10/07 19:23:21;;;;;;;;;17.50;15.00;;;;;;;;5054742;27;45811;-75
2021/10/07 19:25:46;;;;;;;;;18.67;17.00;;;;;;;;5060518;27;45723;-77
2021/10/07 19:28:11;;;;;;;;;17.00;15.67;;;;;;;;5069789;27;42498;-77
2021/10/07 19:30:37;;;;;;;;;21.67;16.67;;;;;;;;5068828;27;33289;-75
2021/10/07 19:33:02;;;;;;;;;16.00;16.00;;;;;;;;5151762;22;28472;-76
2021/10/07 19:35:27;;;;;;;;;15.67;15.67;;;;;;;;5065993;28;44786;-77
2021/10/07 19:37:52;;;;;;;;;18.75;16.25;;;;;;;;5063846;28;38174;-75
2021/10/07 19:40:18;;;;;;;;;19.00;15.33;;;;;;;;5073930;28;43132;-76
2021/10/07 19:42:43;;;;;;;;;17.75;15.25;;;;;;;;5074991;28;44846;-76
2021/10/07 19:45:08;;;;;;;;;15.75;14.50;;;;;;;;5074447;28;43274;-76
2021/10/07 19:47:34;;;;;;;;;20.25;17.50;;;;;;;;5073279;28;28621;-76
2021/10/07 19:49:59;;;;;;;;;17.33;16.00;;;;;;;;5073737;27;28705;-76
2021/10/07 19:52:24;;;;;;;;;17.50;15.50;;;;;;;;5071939;28;29044;-77
2021/10/07 19:54:50;;;;;;;;;17.33;16.00;;;;;;;;5067655;28;28449;-75
2021/10/07 19:57:17;;;;;;;;;13.75;13.75;;;;;;;;5072889;28;28992;-76
2021/10/07 19:59:42;;;;;;;;;15.25;13.75;;;;;;;;5070365;27;28676;-74
2021/10/07 20:02:08;;;;;;;;;16.50;12.75;;;;;;;;5074638;27;45756;-76
2021/10/07 20:04:34;;;;;;;;;16.75;14.25;;;;;;;;5074499;28;43903;-76
2021/10/07 20:06:59;;;;;;;;;17.25;13.75;;;;;;;;5080095;27;43303;-75
2021/10/07 20:09:24;;;;;;;;;16.67;15.00;;;;;;;;5062172;28;45472;-76
2021/10/07 20:11:50;;;;;;;;;16.00;11.33;;;;;;;;5079113;28;38399;-77
2021/10/07 20:14:17;;;;;;;;;16.75;15.50;;;;;;;;5070763;28;47304;-77
2021/10/07 20:16:42;;;;;;;;;18.75;14.50;;;;;;;;5079437;28;41046;-77
2021/10/07 20:19:07;;;;;;;;;23.00;18.00;;;;;;;;5071531;28;39225;-76
2021/10/07 20:21:35;;;;;;;;;15.50;15.50;;;;;;;;5070556;27;49552;-79
2021/10/07 20:24:00;;;;;;;;;18.50;16.00;;;;;;;;5073000;27;45544;-75
2021/10/07 20:26:25;;;;;;;;;21.67;18.00;;;;;;;;5055717;28;45824;-75
2021/10/07 20:28:51;;;;;;;;;20.33;17.33;;;;;;;;5057951;28;45249;-76
2021/10/07 20:31:19;;;;;;;;;25.00;17.67;;;;;;;;5073081;27;44833;-77
2021/10/07 20:38:58;;;;;;;;;16.75;14.50;;;;;;;;5071242;28;44799;-76
2021/10/07 20:41:24;;;;;;;;;19.75;16.25;;;;;;;;5068573;27;45430;-76
2021/10/07 20:43:49;;;;;;;;;18.33;14.33;;;;;;;;5051883;28;44737;-75
2021/10/07 20:46:14;;;;;;;;;15.50;15.25;;;;;;;;5061430;27;52213;-75
2021/10/07 20:48:39;;;;;;;;;19.00;16.00;;;;;;;;5072342;28;44710;-74
2021/10/07 20:51:05;;;;;;;;;14.33;14.33;;;;;;;;5080195;27;44875;-74
2021/10/07 20:53:30;;;;;;;;;15.00;15.00;;;;;;;;5060449;28;45529;-75
2021/10/07 20:55:55;;;;;;;;;18.25;16.00;;;;;;;;5077998;28;45337;-75
2021/10/07 20:58:20;;;;;;;;;17.00;16.00;;;;;;;;5046312;27;47712;-75
2021/10/07 21:00:45;;;;;;;;;14.67;14.67;;;;;;;;5039772;28;46142;-74
2021/10/07 21:03:11;;;;;;;;;12.67;11.00;;;;;;;;5062980;28;46262;-74
2021/10/07 21:05:36;;;;;;;;;20.00;15.67;;;;;;;;5055090;28;45551;-75
2021/10/07 21:08:01;;;;;;;;;16.75;16.25;;;;;;;;5064040;28;45549;-75
2021/10/07 21:10:26;;;;;;;;;17.33;16.00;;;;;;;;5059620;28;45571;-74
2021/10/07 21:12:52;;;;;;;;;15.75;13.25;;;;;;;;5061676;28;45609;-75
2021/10/07 21:15:17;;;;;;;;;17.25;15.00;;;;;;;;5058838;27;45727;-74
2021/10/07 21:17:44;;;;;;;;;18.50;14.50;;;;;;;;5066307;28;45509;-75
2021/10/07 21:20:09;;;;;;;;;16.00;14.75;;;;;;;;5056776;28;45572;-74
2021/10/07 21:22:34;;;;;;;;;18.25;17.00;;;;;;;;5069225;28;46984;-75
2021/10/07 21:25:00;;;;;;;;;15.67;15.00;;;;;;;;5053685;28;45798;-75
2021/10/07 21:27:25;;;;;;;;;17.33;14.00;;;;;;;;5059887;28;45508;-75
2021/10/07 21:29:51;;;;;;;;;21.00;17.00;;;;;;;;5065249;28;45540;-75
2021/10/07 21:32:16;;;;;;;;;15.75;13.00;;;;;;;;5056248;27;45793;-74
2021/10/07 21:34:41;;;;;;;;;16.25;12.50;;;;;;;;5052687;28;45602;-74
2021/10/07 21:37:07;;;;;;;;;14.75;12.50;;;;;;;;5051656;28;45469;-74
2021/10/07 21:39:32;;;;;;;;;13.50;13.50;;;;;;;;5050036;27;45721;-74
2021/10/07 21:41:57;;;;;;;;;16.00;10.25;;;;;;;;5054868;28;46161;-74
2021/10/07 21:44:22;;;;;;;;;16.00;12.33;;;;;;;;5053688;28;45801;-74
2021/10/07 21:46:47;;;;;;;;;14.00;12.33;;;;;;;;5052079;28;45330;-75
2021/10/07 21:49:13;;;;;;;;;14.00;10.67;;;;;;;;5051129;27;46225;-75
2021/10/07 21:51:38;;;;;;;;;15.00;11.67;;;;;;;;5053994;28;46168;-75
2021/10/07 21:54:03;;;;;;;;;7.67;7.33;;;;;;;;5058091;28;45525;-74
2021/10/07 21:56:28;;;;;;;;;10.33;8.33;;;;;;;;5048768;28;45631;-75
2021/10/07 21:58:54;;;;;;;;;9.00;8.75;;;;;;;;5048488;28;45430;-75
2021/10/07 22:01:19;;;;;;;;;12.33;10.00;;;;;;;;5050227;28;45540;-75
2021/10/07 22:03:44;;;;;;;;;15.50;9.50;;;;;;;;5057538;28;45756;-74
2021/10/07 22:06:10;;;;;;;;;11.25;11.00;;;;;;;;5062889;27;45625;-74
2021/10/07 22:08:35;;;;;;;;;10.00;9.00;;;;;;;;5054753;28;45728;-73
2021/10/07 22:11:00;;;;;;;;;14.00;9.00;;;;;;;;5051281;28;47235;-75
2021/10/07 22:13:25;;;;;;;;;13.50;11.25;;;;;;;;5060264;28;46983;-74